sensor_id;sensor_type;location;lat;lon;timestamp;temperature;humidity
1534;DHT22;760;48.822;9.304;2023-04-16T04:04:48;8.20;99.90
1534;DHT22;760;48.822;9.304;2023-04-16T04:07:15;8.20;99.90
1534;DHT22;760;48.822;9.304;2023-04-16T04:09:40;8.20;99.90
1534;DHT22;760;48.822;9.304;2023-04-16T04:12:06;8.20;99.90
1534;DHT22;760;48.822;9.304;2023-04-16T04:14:31;8.20;99.90
1534;DHT22;760;48.822;9.304;2023-04-16T04:16:57;8.20;99.90
1534;DHT22;760;48.822;9.304;2023-04-16T04:19:23;8.20;99.90
1534;DHT22;760;48.822;9.304;2023-04-16T04:21:48;8.20;99.90
1534;DHT22;760;48.822;9.304;2023-04-16T04:24:14;8.20;99.90
1534;DHT22;760;48.822;9.304;2023-04-16T04:26:39;8.20;99.90
1534;DHT22;760;48.822;9.304;2023-04-16T04:29:05;8.20;99.90
1534;DHT22;760;48.822;9.304;2023-04-16T04:31:30;8.20;99.90
1534;DHT22;760;48.822;9.304;2023-04-16T04:33:56;8.20;99.90
1534;DHT22;760;48.822;9.304;2023-04-16T04:36:22;8.20;99.90
1534;DHT22;760;48.822;9.304;2023-04-16T04:38:47;8.20;99.90
1534;DHT22;760;48.822;9.304;2023-04-16T04:41:13;8.20;99.90
1534;DHT22;760;48.822;9.304;2023-04-16T04:43:38;8.20;99.90
1534;DHT22;760;48.822;9.304;2023-04-16T04:46:04;8.20;99.90
1534;DHT22;760;48.822;9.304;2023-04-16T04:48:29;8.20;99.90
1534;DHT22;760;48.822;9.304;2023-04-16T04:50:55;8.20;99.90
1534;DHT22;760;48.822;9.304;2023-04-16T04:53:21;8.20;99.90
1534;DHT22;760;48.822;9.304;2023-04-16T04:55:46;8.20;99.90
1534;DHT22;760;48.822;9.304;2023-04-16T04:58:12;8.20;99.90
1534;DHT22;760;48.822;9.304;2023-04-16T05:00:37;8.20;99.90
1534;DHT22;760;48.822;9.304;2023-04-16T05:03:05;8.20;99.90
1534;DHT22;760;48.822;9.304;2023-04-16T05:05:33;8.20;99.90
1534;DHT22;760;48.822;9.304;2023-04-16T05:07:59;8.20;99.90
1534;DHT22;760;48.822;9.304;2023-04-16T05:10:26;8.20;99.90
1534;DHT22;760;48.822;9.304;2023-04-16T05:12:51;8.20;99.90
1534;DHT22;760;48.822;9.304;2023-04-16T05:15:17;8.20;99.90
1534;DHT22;760;48.822;9.304;2023-04-16T05:17:42;8.20;99.90
1534;DHT22;760;48.822;9.304;2023-04-16T05:20:09;8.20;99.90
1534;DHT22;760;48.822;9.304;2023-04-16T05:22:34;8.20;99.90
1534;DHT22;760;48.822;9.304;2023-04-16T05:25:00;8.20;99.90
1534;DHT22;760;48.822;9.304;2023-04-16T05:27:26;8.20;99.90
1534;DHT22;760;48.822;9.304;2023-04-16T05:29:51;8.20;99.90
1534;DHT22;760;48.822;9.304;2023-04-16T05:32:17;8.20;99.90
1534;DHT22;760;48.822;9.304;2023-04-16T05:34:43;8.20;99.90
1534;DHT22;760;48.822;9.304;2023-04-16T05:37:08;8.20;99.90
1534;DHT22;760;48.822;9.304;2023-04-16T05:39:34;8.20;99.90
1534;DHT22;760;48.822;9.304;2023-04-16T05:41:59;8.20;99.90
1534;DHT22;760;48.822;9.304;2023-04-16T05:44:25;8.20;99.90
1534;DHT22;760;48.822;9.304;2023-04-16T05:46:50;8.20;99.90
1534;DHT22;760;48.822;9.304;2023-04-16T05:49:17;8.20;99.90
1534;DHT22;760;48.822;9.304;2023-04-16T05:51:46;8.20;99.90
1534;DHT22;760;48.822;9.304;2023-04-16T05:54:12;8.20;99.90
1534;DHT22;760;48.822;9.304;2023-04-16T05:56:38;8.20;99.90
1534;DHT22;760;48.822;9.304;2023-04-16T05:59:03;8.20;99.90
1534;DHT22;760;48.822;9.304;2023-04-16T06:01:29;8.20;99.90
1534;DHT22;760;48.822;9.304;2023-04-16T06:03:54;8.20;99.90
1534;DHT22;760;48.822;9.304;2023-04-16T06:06:20;8.20;99.90
1534;DHT22;760;48.822;9.304;2023-04-16T06:08:45;8.30;99.90
1534;DHT22;760;48.822;9.304;2023-04-16T06:11:11;8.20;99.90
1534;DHT22;760;48.822;9.304;2023-04-16T06:13:37;8.20;99.90
1534;DHT22;760;48.822;9.304;2023-04-16T06:16:03;8.20;99.90
1534;DHT22;760;48.822;9.304;2023-04-16T06:18:29;8.20;99.90
1534;DHT22;760;48.822;9.304;2023-04-16T06:20:55;8.30;99.90
1534;DHT22;760;48.822;9.304;2023-04-16T06:23:20;8.30;99.90
1534;DHT22;760;48.822;9.304;2023-04-16T06:25:46;8.30;99.90
1534;DHT22;760;48.822;9.304;2023-04-16T06:28:11;8.30;99.90
1534;DHT22;760;48.822;9.304;2023-04-16T06:30:38;8.40;99.90
1534;DHT22;760;48.822;9.304;2023-04-16T06:33:04;8.40;99.90
1534;DHT22;760;48.822;9.304;2023-04-16T06:35:29;8.40;99.90
1534;DHT22;760;48.822;9.304;2023-04-16T06:37:55;8.40;99.90
1534;DHT22;760;48.822;9.304;2023-04-16T06:40:21;8.40;99.90
1534;DHT22;760;48.822;9.304;2023-04-16T06:42:46;8.50;99.90
1534;DHT22;760;48.822;9.304;2023-04-16T06:45:12;8.50;99.90
1534;DHT22;760;48.822;9.304;2023-04-16T06:47:38;8.40;99.90
1534;DHT22;760;48.822;9.304;2023-04-16T06:50:04;8.50;99.90
1534;DHT22;760;48.822;9.304;2023-04-16T06:52:29;8.50;99.90
1534;DHT22;760;48.822;9.304;2023-04-16T06:54:55;8.50;99.90
1534;DHT22;760;48.822;9.304;2023-04-16T06:57:21;8.50;99.90
1534;DHT22;760;48.822;9.304;2023-04-16T06:59:46;8.60;99.90
1534;DHT22;760;48.822;9.304;2023-04-16T07:02:12;8.60;99.90
1534;DHT22;760;48.822;9.304;2023-04-16T07:04:37;8.60;99.90
1534;DHT22;760;48.822;9.304;2023-04-16T07:07:03;8.60;99.90
1534;DHT22;760;48.822;9.304;2023-04-16T07:09:29;8.60;99.90
1534;DHT22;760;48.822;9.304;2023-04-16T07:11:54;8.60;99.90
1534;DHT22;760;48.822;9.304;2023-04-16T07:14:20;8.60;99.90
1534;DHT22;760;48.822;9.304;2023-04-16T07:16:45;8.50;99.90
1534;DHT22;760;48.822;9.304;2023-04-16T07:19:11;8.50;99.90
1534;DHT22;760;48.822;9.304;2023-04-16T07:21:37;8.50;99.90
1534;DHT22;760;48.822;9.304;2023-04-16T07:24:02;8.60;99.90
1534;DHT22;760;48.822;9.304;2023-04-16T07:26:28;8.60;99.90
1534;DHT22;760;48.822;9.304;2023-04-16T07:28:53;8.60;99.90
1534;DHT22;760;48.822;9.304;2023-04-16T07:31:19;8.70;99.90
1534;DHT22;760;48.822;9.304;2023-04-16T07:33:45;8.70;99.90
1534;DHT22;760;48.822;9.304;2023-04-16T07:36:10;8.70;99.90
1534;DHT22;760;48.822;9.304;2023-04-16T07:38:36;8.70;99.90
1534;DHT22;760;48.822;9.304;2023-04-16T07:41:02;8.70;99.90
1534;DHT22;760;48.822;9.304;2023-04-16T07:43:27;8.70;99.90
1534;DHT22;760;48.822;9.304;2023-04-16T07:45:53;8.70;99.90
1534;DHT22;760;48.822;9.304;2023-04-16T07:48:20;8.70;99.90
1534;DHT22;760;48.822;9.304;2023-04-16T07:50:45;8.70;99.90
1534;DHT22;760;48.822;9.304;2023-04-16T07:53:11;8.80;99.90
1534;DHT22;760;48.822;9.304;2023-04-16T07:55:37;8.80;99.90
1534;DHT22;760;48.822;9.304;2023-04-16T07:58:02;8.80;99.90
1534;DHT22;760;48.822;9.304;2023-04-16T08:00:28;8.80;99.90
1534;DHT22;760;48.822;9.304;2023-04-16T08:02:54;8.80;99.90
1534;DHT22;760;48.822;9.304;2023-04-16T08:05:19;8.90;99.90
1534;DHT22;760;48.822;9.304;2023-04-16T08:07:45;8.90;99.90
1534;DHT22;760;48.822;9.304;2023-04-16T08:10:11;8.90;99.90
1534;DHT22;760;48.822;9.304;2023-04-16T08:12:37;8.90;99.90
1534;DHT22;760;48.822;9.304;2023-04-16T08:15:03;8.90;99.90
1534;DHT22;760;48.822;9.304;2023-04-16T08:17:29;8.90;99.90
1534;DHT22;760;48.822;9.304;2023-04-16T08:19:55;9.00;99.90
1534;DHT22;760;48.822;9.304;2023-04-16T08:22:20;9.00;99.90
1534;DHT22;760;48.822;9.304;2023-04-16T08:24:46;9.00;99.90
1534;DHT22;760;48.822;9.304;2023-04-16T08:27:12;9.00;99.90
1534;DHT22;760;48.822;9.304;2023-04-16T08:29:38;9.00;99.90
1534;DHT22;760;48.822;9.304;2023-04-16T08:32:03;9.10;99.90
1534;DHT22;760;48.822;9.304;2023-04-16T08:34:29;9.10;99.90
1534;DHT22;760;48.822;9.304;2023-04-16T08:36:54;9.10;99.90
1534;DHT22;760;48.822;9.304;2023-04-16T08:39:20;9.10;99.90
1534;DHT22;760;48.822;9.304;2023-04-16T08:41:46;9.10;99.90
1534;DHT22;760;48.822;9.304;2023-04-16T08:44:36;9.10;99.90
1534;DHT22;760;48.822;9.304;2023-04-16T08:47:02;9.20;99.90
1534;DHT22;760;48.822;9.304;2023-04-16T08:49:27;9.20;99.90
1534;DHT22;760;48.822;9.304;2023-04-16T08:51:54;9.20;99.90
1534;DHT22;760;48.822;9.304;2023-04-16T08:54:31;9.30;99.90
1534;DHT22;760;48.822;9.304;2023-04-16T08:56:59;9.30;99.90
1534;DHT22;760;48.822;9.304;2023-04-16T08:59:27;9.30;99.90
1534;DHT22;760;48.822;9.304;2023-04-16T09:01:59;9.30;99.90
1534;DHT22;760;48.822;9.304;2023-04-16T09:04:26;9.30;99.90
1534;DHT22;760;48.822;9.304;2023-04-16T09:06:55;9.30;99.90
1534;DHT22;760;48.822;9.304;2023-04-16T09:09:22;9.40;99.90
1534;DHT22;760;48.822;9.304;2023-04-16T09:11:53;9.40;99.90
1534;DHT22;760;48.822;9.304;2023-04-16T09:14:19;9.50;99.90
1534;DHT22;760;48.822;9.304;2023-04-16T09:16:46;9.50;99.90
1534;DHT22;760;48.822;9.304;2023-04-16T09:19:15;9.50;99.90
1534;DHT22;760;48.822;9.304;2023-04-16T09:21:42;9.60;99.90
1534;DHT22;760;48.822;9.304;2023-04-16T09:24:10;9.60;99.90
1534;DHT22;760;48.822;9.304;2023-04-16T09:26:35;9.60;99.90
1534;DHT22;760;48.822;9.304;2023-04-16T09:29:01;9.60;99.90
1534;DHT22;760;48.822;9.304;2023-04-16T09:31:27;9.60;99.90
1534;DHT22;760;48.822;9.304;2023-04-16T09:34:03;9.60;99.90
1534;DHT22;760;48.822;9.304;2023-04-16T09:36:29;9.70;99.90
1534;DHT22;760;48.822;9.304;2023-04-16T09:38:55;9.70;99.90
1534;DHT22;760;48.822;9.304;2023-04-16T09:41:27;9.70;99.90
1534;DHT22;760;48.822;9.304;2023-04-16T09:43:54;9.80;99.90
1534;DHT22;760;48.822;9.304;2023-04-16T09:46:21;9.70;99.90
1534;DHT22;760;48.822;9.304;2023-04-16T09:48:46;9.70;99.90
1534;DHT22;760;48.822;9.304;2023-04-16T09:51:12;9.70;99.90
1534;DHT22;760;48.822;9.304;2023-04-16T09:53:38;9.60;99.90
1534;DHT22;760;48.822;9.304;2023-04-16T09:56:07;9.60;99.90
1534;DHT22;760;48.822;9.304;2023-04-16T09:58:35;9.60;99.90
1534;DHT22;760;48.822;9.304;2023-04-16T10:01:07;9.50;99.90
1534;DHT22;760;48.822;9.304;2023-04-16T10:03:33;9.50;99.90
1534;DHT22;760;48.822;9.304;2023-04-16T10:08:42;9.40;99.90
1534;DHT22;760;48.822;9.304;2023-04-16T10:11:08;9.50;99.90
1534;DHT22;760;48.822;9.304;2023-04-16T10:13:33;9.40;99.90
1534;DHT22;760;48.822;9.304;2023-04-16T10:15:59;9.40;99.90
1534;DHT22;760;48.822;9.304;2023-04-16T10:18:25;9.40;99.90
1534;DHT22;760;48.822;9.304;2023-04-16T10:20:51;9.40;99.90
1534;DHT22;760;48.822;9.304;2023-04-16T10:23:20;9.30;99.90
1534;DHT22;760;48.822;9.304;2023-04-16T10:25:50;9.30;99.90
1534;DHT22;760;48.822;9.304;2023-04-16T10:28:16;9.30;99.90
1534;DHT22;760;48.822;9.304;2023-04-16T10:30:45;9.30;99.90
1534;DHT22;760;48.822;9.304;2023-04-16T10:33:22;9.30;99.90
1534;DHT22;760;48.822;9.304;2023-04-16T10:35:49;9.40;99.90
1534;DHT22;760;48.822;9.304;2023-04-16T10:38:25;9.40;99.90
1534;DHT22;760;48.822;9.304;2023-04-16T10:41:20;9.40;99.90
1534;DHT22;760;48.822;9.304;2023-04-16T10:43:47;9.40;99.90
1534;DHT22;760;48.822;9.304;2023-04-16T10:46:33;9.50;99.90
1534;DHT22;760;48.822;9.304;2023-04-16T10:49:17;9.50;99.90
1534;DHT22;760;48.822;9.304;2023-04-16T10:52:00;9.60;99.90
1534;DHT22;760;48.822;9.304;2023-04-16T10:54:29;9.70;99.90
1534;DHT22;760;48.822;9.304;2023-04-16T10:57:02;9.70;99.90
1534;DHT22;760;48.822;9.304;2023-04-16T10:59:33;9.80;99.90
1534;DHT22;760;48.822;9.304;2023-04-16T11:02:03;9.80;99.90
1534;DHT22;760;48.822;9.304;2023-04-16T11:04:35;9.90;99.90
1534;DHT22;760;48.822;9.304;2023-04-16T11:09:56;9.90;99.90
1534;DHT22;760;48.822;9.304;2023-04-16T11:15:03;9.70;99.90
1534;DHT22;760;48.822;9.304;2023-04-16T11:17:39;9.70;99.90
1534;DHT22;760;48.822;9.304;2023-04-16T11:20:07;9.70;99.90
1534;DHT22;760;48.822;9.304;2023-04-16T11:22:37;9.70;99.90
1534;DHT22;760;48.822;9.304;2023-04-16T11:25:03;9.70;99.90
1534;DHT22;760;48.822;9.304;2023-04-16T11:27:31;9.70;99.90
1534;DHT22;760;48.822;9.304;2023-04-16T11:30:02;9.70;99.90
1534;DHT22;760;48.822;9.304;2023-04-16T11:32:32;9.80;99.90
1534;DHT22;760;48.822;9.304;2023-04-16T11:34:59;9.80;99.90
1534;DHT22;760;48.822;9.304;2023-04-16T11:37:32;9.80;99.90
1534;DHT22;760;48.822;9.304;2023-04-16T11:39:59;9.80;99.90
1534;DHT22;760;48.822;9.304;2023-04-16T11:42:26;9.80;99.90
1534;DHT22;760;48.822;9.304;2023-04-16T11:44:57;9.80;99.90
1534;DHT22;760;48.822;9.304;2023-04-16T11:47:26;9.70;99.90
1534;DHT22;760;48.822;9.304;2023-04-16T11:49:51;9.80;99.90
1534;DHT22;760;48.822;9.304;2023-04-16T11:52:25;9.80;99.90
1534;DHT22;760;48.822;9.304;2023-04-16T11:54:52;9.80;99.90
1534;DHT22;760;48.822;9.304;2023-04-16T11:57:31;9.80;99.90
1534;DHT22;760;48.822;9.304;2023-04-16T11:59:57;9.90;99.90
1534;DHT22;760;48.822;9.304;2023-04-16T12:02:44;9.80;99.90
1534;DHT22;760;48.822;9.304;2023-04-16T12:05:30;9.80;99.90
1534;DHT22;760;48.822;9.304;2023-04-16T12:08:01;9.90;99.90
1534;DHT22;760;48.822;9.304;2023-04-16T12:10:28;9.90;99.90
1534;DHT22;760;48.822;9.304;2023-04-16T12:12:53;10.00;99.90
1534;DHT22;760;48.822;9.304;2023-04-16T12:15:19;10.10;99.90
1534;DHT22;760;48.822;9.304;2023-04-16T12:17:45;10.10;99.90
1534;DHT22;760;48.822;9.304;2023-04-16T12:20:14;10.10;99.90
1534;DHT22;760;48.822;9.304;2023-04-16T12:22:45;10.20;99.90
1534;DHT22;760;48.822;9.304;2023-04-16T12:25:13;10.20;99.90
1534;DHT22;760;48.822;9.304;2023-04-16T12:27:49;10.10;99.90
1534;DHT22;760;48.822;9.304;2023-04-16T12:30:23;10.10;99.90
1534;DHT22;760;48.822;9.304;2023-04-16T12:32:50;10.10;99.90
1534;DHT22;760;48.822;9.304;2023-04-16T12:35:36;10.20;99.90
1534;DHT22;760;48.822;9.304;2023-04-16T12:38:02;10.20;99.90
1534;DHT22;760;48.822;9.304;2023-04-16T12:40:28;10.20;99.90
1534;DHT22;760;48.822;9.304;2023-04-16T12:42:53;10.20;99.90
1534;DHT22;760;48.822;9.304;2023-04-16T12:45:21;10.10;99.90
1534;DHT22;760;48.822;9.304;2023-04-16T12:47:46;10.10;99.90
1534;DHT22;760;48.822;9.304;2023-04-16T12:50:12;10.10;99.90
1534;DHT22;760;48.822;9.304;2023-04-16T12:52:38;10.10;99.90
1534;DHT22;760;48.822;9.304;2023-04-16T12:55:04;10.10;99.90
1534;DHT22;760;48.822;9.304;2023-04-16T12:57:30;10.10;99.90
1534;DHT22;760;48.822;9.304;2023-04-16T12:59:56;10.10;99.90
1534;DHT22;760;48.822;9.304;2023-04-16T13:02:22;10.10;99.90
1534;DHT22;760;48.822;9.304;2023-04-16T13:04:52;10.20;99.90
1534;DHT22;760;48.822;9.304;2023-04-16T13:07:18;10.20;99.90
1534;DHT22;760;48.822;9.304;2023-04-16T13:09:44;10.30;99.90
1534;DHT22;760;48.822;9.304;2023-04-16T13:12:10;10.30;99.90
1534;DHT22;760;48.822;9.304;2023-04-16T13:14:36;10.30;99.90
1534;DHT22;760;48.822;9.304;2023-04-16T13:17:02;10.20;99.90
1534;DHT22;760;48.822;9.304;2023-04-16T13:19:28;10.20;99.90
1534;DHT22;760;48.822;9.304;2023-04-16T13:21:54;10.20;99.90
1534;DHT22;760;48.822;9.304;2023-04-16T13:24:20;10.20;99.90
1534;DHT22;760;48.822;9.304;2023-04-16T13:26:46;10.20;99.90
1534;DHT22;760;48.822;9.304;2023-04-16T13:29:11;10.20;99.90
1534;DHT22;760;48.822;9.304;2023-04-16T13:31:37;10.20;99.90
1534;DHT22;760;48.822;9.304;2023-04-16T13:34:03;10.20;99.90
1534;DHT22;760;48.822;9.304;2023-04-16T13:36:29;10.10;99.90
1534;DHT22;760;48.822;9.304;2023-04-16T13:38:57;10.10;99.90
1534;DHT22;760;48.822;9.304;2023-04-16T13:41:23;10.10;99.90
1534;DHT22;760;48.822;9.304;2023-04-16T13:43:48;10.10;99.90
1534;DHT22;760;48.822;9.304;2023-04-16T13:46:14;10.10;99.90
1534;DHT22;760;48.822;9.304;2023-04-16T13:48:39;10.10;99.90
1534;DHT22;760;48.822;9.304;2023-04-16T13:51:05;10.10;99.90
1534;DHT22;760;48.822;9.304;2023-04-16T13:53:31;10.10;99.90
1534;DHT22;760;48.822;9.304;2023-04-16T13:55:56;10.20;99.90
1534;DHT22;760;48.822;9.304;2023-04-16T13:58:22;10.10;99.90
1534;DHT22;760;48.822;9.304;2023-04-16T14:00:47;10.20;99.90
1534;DHT22;760;48.822;9.304;2023-04-16T14:03:13;10.20;99.90
1534;DHT22;760;48.822;9.304;2023-04-16T14:05:39;10.20;99.90
1534;DHT22;760;48.822;9.304;2023-04-16T14:08:05;10.20;99.90
1534;DHT22;760;48.822;9.304;2023-04-16T14:10:31;10.20;99.90
1534;DHT22;760;48.822;9.304;2023-04-16T14:12:57;10.20;99.90
1534;DHT22;760;48.822;9.304;2023-04-16T14:15:22;10.20;99.90
1534;DHT22;760;48.822;9.304;2023-04-16T14:17:51;10.20;99.90
1534;DHT22;760;48.822;9.304;2023-04-16T14:20:16;10.20;99.90
1534;DHT22;760;48.822;9.304;2023-04-16T14:22:42;10.20;99.90
1534;DHT22;760;48.822;9.304;2023-04-16T14:25:08;10.20;99.90
1534;DHT22;760;48.822;9.304;2023-04-16T14:27:34;10.20;99.90
1534;DHT22;760;48.822;9.304;2023-04-16T14:30:00;10.20;99.90
1534;DHT22;760;48.822;9.304;2023-04-16T14:32:26;10.20;99.90
1534;DHT22;760;48.822;9.304;2023-04-16T14:34:51;10.20;99.90
1534;DHT22;760;48.822;9.304;2023-04-16T14:37:17;10.20;99.90
1534;DHT22;760;48.822;9.304;2023-04-16T14:39:43;10.20;99.90
1534;DHT22;760;48.822;9.304;2023-04-16T14:42:08;10.20;99.90
1534;DHT22;760;48.822;9.304;2023-04-16T14:44:35;10.20;99.90
1534;DHT22;760;48.822;9.304;2023-04-16T14:47:00;10.20;99.90
1534;DHT22;760;48.822;9.304;2023-04-16T14:49:26;10.20;99.90
1534;DHT22;760;48.822;9.304;2023-04-16T14:51:52;10.20;99.90
1534;DHT22;760;48.822;9.304;2023-04-16T14:54:19;10.20;99.90
1534;DHT22;760;48.822;9.304;2023-04-16T14:56:45;10.10;99.90
1534;DHT22;760;48.822;9.304;2023-04-16T14:59:11;10.10;99.90
1534;DHT22;760;48.822;9.304;2023-04-16T15:01:37;10.10;99.90
1534;DHT22;760;48.822;9.304;2023-04-16T15:04:05;10.00;99.90
1534;DHT22;760;48.822;9.304;2023-04-16T15:06:31;10.10;99.90
1534;DHT22;760;48.822;9.304;2023-04-16T15:08:57;10.10;99.90
1534;DHT22;760;48.822;9.304;2023-04-16T15:11:23;10.10;99.90
1534;DHT22;760;48.822;9.304;2023-04-16T15:13:48;10.10;99.90
1534;DHT22;760;48.822;9.304;2023-04-16T15:16:14;10.10;99.90
1534;DHT22;760;48.822;9.304;2023-04-16T15:18:40;10.10;99.90
1534;DHT22;760;48.822;9.304;2023-04-16T15:21:06;10.10;99.90
1534;DHT22;760;48.822;9.304;2023-04-16T15:23:31;10.10;99.90
1534;DHT22;760;48.822;9.304;2023-04-16T15:25:57;10.10;99.90
1534;DHT22;760;48.822;9.304;2023-04-16T15:28:23;10.10;99.90
1534;DHT22;760;48.822;9.304;2023-04-16T15:30:49;10.10;99.90
1534;DHT22;760;48.822;9.304;2023-04-16T15:33:14;10.10;99.90
1534;DHT22;760;48.822;9.304;2023-04-16T15:35:40;10.10;99.90
1534;DHT22;760;48.822;9.304;2023-04-16T15:38:06;10.10;99.90
1534;DHT22;760;48.822;9.304;2023-04-16T15:40:32;10.10;99.90
1534;DHT22;760;48.822;9.304;2023-04-16T15:42:58;10.00;99.90
1534;DHT22;760;48.822;9.304;2023-04-16T15:45:23;10.00;99.90
1534;DHT22;760;48.822;9.304;2023-04-16T15:47:49;10.00;99.90
1534;DHT22;760;48.822;9.304;2023-04-16T15:50:18;10.00;99.90
1534;DHT22;760;48.822;9.304;2023-04-16T15:52:45;9.90;99.90
1534;DHT22;760;48.822;9.304;2023-04-16T15:55:11;9.90;99.90
1534;DHT22;760;48.822;9.304;2023-04-16T15:57:36;9.90;99.90
1534;DHT22;760;48.822;9.304;2023-04-16T16:00:03;9.90;99.90
1534;DHT22;760;48.822;9.304;2023-04-16T16:02:38;9.90;99.90
1534;DHT22;760;48.822;9.304;2023-04-16T16:05:04;9.80;99.90
1534;DHT22;760;48.822;9.304;2023-04-16T16:07:32;9.90;99.90
1534;DHT22;760;48.822;9.304;2023-04-16T16:09:57;9.80;99.90
1534;DHT22;760;48.822;9.304;2023-04-16T16:12:23;9.80;99.90
1534;DHT22;760;48.822;9.304;2023-04-16T16:14:49;9.80;99.90
1534;DHT22;760;48.822;9.304;2023-04-16T16:17:15;9.80;99.90
1534;DHT22;760;48.822;9.304;2023-04-16T16:19:41;9.80;99.90
1534;DHT22;760;48.822;9.304;2023-04-16T16:22:06;9.80;99.90
1534;DHT22;760;48.822;9.304;2023-04-16T16:24:33;9.80;99.90
1534;DHT22;760;48.822;9.304;2023-04-16T16:26:59;9.80;99.90
1534;DHT22;760;48.822;9.304;2023-04-16T16:29:25;9.80;99.90
1534;DHT22;760;48.822;9.304;2023-04-16T16:31:51;9.80;99.90
1534;DHT22;760;48.822;9.304;2023-04-16T16:34:17;9.80;99.90
1534;DHT22;760;48.822;9.304;2023-04-16T16:36:45;9.80;99.90
1534;DHT22;760;48.822;9.304;2023-04-16T16:39:11;9.80;99.90
1534;DHT22;760;48.822;9.304;2023-04-16T16:41:36;9.80;99.90
1534;DHT22;760;48.822;9.304;2023-04-16T16:44:09;9.80;99.90
1534;DHT22;760;48.822;9.304;2023-04-16T16:46:35;9.90;99.90
1534;DHT22;760;48.822;9.304;2023-04-16T16:49:01;9.90;99.90
1534;DHT22;760;48.822;9.304;2023-04-16T16:51:29;9.90;99.90
1534;DHT22;760;48.822;9.304;2023-04-16T16:53:55;9.90;99.90
1534;DHT22;760;48.822;9.304;2023-04-16T16:56:21;9.90;99.90
1534;DHT22;760;48.822;9.304;2023-04-16T16:58:47;9.90;99.90
1534;DHT22;760;48.822;9.304;2023-04-16T17:01:13;9.90;99.90
1534;DHT22;760;48.822;9.304;2023-04-16T17:03:39;9.80;99.90
1534;DHT22;760;48.822;9.304;2023-04-16T17:06:05;9.90;99.90
1534;DHT22;760;48.822;9.304;2023-04-16T17:08:30;9.90;99.90
1534;DHT22;760;48.822;9.304;2023-04-16T17:10:56;9.80;99.90
1534;DHT22;760;48.822;9.304;2023-04-16T17:13:22;9.80;99.90
1534;DHT22;760;48.822;9.304;2023-04-16T17:15:50;9.80;99.90
1534;DHT22;760;48.822;9.304;2023-04-16T17:18:16;9.80;99.90
1534;DHT22;760;48.822;9.304;2023-04-16T17:20:41;9.80;99.90
1534;DHT22;760;48.822;9.304;2023-04-16T17:23:07;9.80;99.90
1534;DHT22;760;48.822;9.304;2023-04-16T17:25:32;9.80;99.90
1534;DHT22;760;48.822;9.304;2023-04-16T17:27:58;9.80;99.90
1534;DHT22;760;48.822;9.304;2023-04-16T17:30:24;9.70;99.90
1534;DHT22;760;48.822;9.304;2023-04-16T17:32:52;9.70;99.90
1534;DHT22;760;48.822;9.304;2023-04-16T17:35:17;9.70;99.90
1534;DHT22;760;48.822;9.304;2023-04-16T17:37:43;9.70;99.90
1534;DHT22;760;48.822;9.304;2023-04-16T17:40:09;9.70;99.90
1534;DHT22;760;48.822;9.304;2023-04-16T17:42:37;9.70;99.90
1534;DHT22;760;48.822;9.304;2023-04-16T17:45:02;9.70;99.90
1534;DHT22;760;48.822;9.304;2023-04-16T17:47:28;9.70;99.90
1534;DHT22;760;48.822;9.304;2023-04-16T17:49:54;9.70;99.90
1534;DHT22;760;48.822;9.304;2023-04-16T17:52:20;9.70;99.90
1534;DHT22;760;48.822;9.304;2023-04-16T17:54:47;9.70;99.90
1534;DHT22;760;48.822;9.304;2023-04-16T17:57:13;9.70;99.90
1534;DHT22;760;48.822;9.304;2023-04-16T17:59:38;9.70;99.90
1534;DHT22;760;48.822;9.304;2023-04-16T18:02:04;9.70;99.90
1534;DHT22;760;48.822;9.304;2023-04-16T18:04:30;9.70;99.90
1534;DHT22;760;48.822;9.304;2023-04-16T18:06:56;9.70;99.90
1534;DHT22;760;48.822;9.304;2023-04-16T18:09:21;9.70;99.90
1534;DHT22;760;48.822;9.304;2023-04-16T18:11:47;9.60;99.90
1534;DHT22;760;48.822;9.304;2023-04-16T18:14:13;9.60;99.90
1534;DHT22;760;48.822;9.304;2023-04-16T18:16:41;9.60;99.90
1534;DHT22;760;48.822;9.304;2023-04-16T18:19:07;9.60;99.90
1534;DHT22;760;48.822;9.304;2023-04-16T18:21:32;9.60;99.90
1534;DHT22;760;48.822;9.304;2023-04-16T18:23:59;9.50;99.90
1534;DHT22;760;48.822;9.304;2023-04-16T18:26:28;9.50;99.90
1534;DHT22;760;48.822;9.304;2023-04-16T18:28:53;9.50;99.90
1534;DHT22;760;48.822;9.304;2023-04-16T18:31:19;9.50;99.90
1534;DHT22;760;48.822;9.304;2023-04-16T18:33:45;9.50;99.90
1534;DHT22;760;48.822;9.304;2023-04-16T18:36:11;9.50;99.90
1534;DHT22;760;48.822;9.304;2023-04-16T18:38:37;9.50;99.90
1534;DHT22;760;48.822;9.304;2023-04-16T18:41:02;9.50;99.90
1534;DHT22;760;48.822;9.304;2023-04-16T18:43:28;9.50;99.90
1534;DHT22;760;48.822;9.304;2023-04-16T18:45:53;9.50;99.90
1534;DHT22;760;48.822;9.304;2023-04-16T18:48:19;9.50;99.90
1534;DHT22;760;48.822;9.304;2023-04-16T18:50:45;9.50;99.90
1534;DHT22;760;48.822;9.304;2023-04-16T18:53:10;9.50;99.90
1534;DHT22;760;48.822;9.304;2023-04-16T18:55:36;9.50;99.90
1534;DHT22;760;48.822;9.304;2023-04-16T18:58:02;9.50;99.90
1534;DHT22;760;48.822;9.304;2023-04-16T19:00:29;9.60;99.90
1534;DHT22;760;48.822;9.304;2023-04-16T19:02:54;9.50;99.90
1534;DHT22;760;48.822;9.304;2023-04-16T19:05:20;9.50;99.90
1534;DHT22;760;48.822;9.304;2023-04-16T19:07:47;9.50;99.90
1534;DHT22;760;48.822;9.304;2023-04-16T19:10:12;9.50;99.90
1534;DHT22;760;48.822;9.304;2023-04-16T19:12:38;9.50;99.90
1534;DHT22;760;48.822;9.304;2023-04-16T19:15:04;9.50;99.90
1534;DHT22;760;48.822;9.304;2023-04-16T19:17:30;9.50;99.90
1534;DHT22;760;48.822;9.304;2023-04-16T19:19:56;9.40;99.90
1534;DHT22;760;48.822;9.304;2023-04-16T19:22:21;9.50;99.90
1534;DHT22;760;48.822;9.304;2023-04-16T19:24:47;9.50;99.90
1534;DHT22;760;48.822;9.304;2023-04-16T19:27:12;9.50;99.90
1534;DHT22;760;48.822;9.304;2023-04-16T19:29:38;9.50;99.90
1534;DHT22;760;48.822;9.304;2023-04-16T19:32:05;9.50;99.90
1534;DHT22;760;48.822;9.304;2023-04-16T19:34:31;9.40;99.90
1534;DHT22;760;48.822;9.304;2023-04-16T19:36:56;9.40;99.90
1534;DHT22;760;48.822;9.304;2023-04-16T19:39:25;9.40;99.90
1534;DHT22;760;48.822;9.304;2023-04-16T19:41:52;9.40;99.90
1534;DHT22;760;48.822;9.304;2023-04-16T19:44:17;9.40;99.90
1534;DHT22;760;48.822;9.304;2023-04-16T19:46:44;9.40;99.90
1534;DHT22;760;48.822;9.304;2023-04-16T19:49:09;9.40;99.90
1534;DHT22;760;48.822;9.304;2023-04-16T19:51:35;9.40;99.90
1534;DHT22;760;48.822;9.304;2023-04-16T19:54:00;9.40;99.90
1534;DHT22;760;48.822;9.304;2023-04-16T19:56:26;9.30;99.90
1534;DHT22;760;48.822;9.304;2023-04-16T19:58:52;9.30;99.90
1534;DHT22;760;48.822;9.304;2023-04-16T20:01:17;9.30;99.90
1534;DHT22;760;48.822;9.304;2023-04-16T20:03:43;9.30;99.90
1534;DHT22;760;48.822;9.304;2023-04-16T20:06:09;9.40;99.90
1534;DHT22;760;48.822;9.304;2023-04-16T20:08:34;9.40;99.90
1534;DHT22;760;48.822;9.304;2023-04-16T20:11:00;9.30;99.90
1534;DHT22;760;48.822;9.304;2023-04-16T20:13:26;9.30;99.90
1534;DHT22;760;48.822;9.304;2023-04-16T20:15:52;9.40;99.90
1534;DHT22;760;48.822;9.304;2023-04-16T20:18:18;9.30;99.90
1534;DHT22;760;48.822;9.304;2023-04-16T20:20:44;9.30;99.90
1534;DHT22;760;48.822;9.304;2023-04-16T20:23:11;9.30;99.90
1534;DHT22;760;48.822;9.304;2023-04-16T20:25:41;9.30;99.90
1534;DHT22;760;48.822;9.304;2023-04-16T20:28:07;9.30;99.90
1534;DHT22;760;48.822;9.304;2023-04-16T20:30:33;9.20;99.90
1534;DHT22;760;48.822;9.304;2023-04-16T20:33:06;9.30;99.90
1534;DHT22;760;48.822;9.304;2023-04-16T20:35:32;9.30;99.90
1534;DHT22;760;48.822;9.304;2023-04-16T20:37:58;9.20;99.90
1534;DHT22;760;48.822;9.304;2023-04-16T20:40:24;9.30;99.90